Aquone, North Carolina
Current Conditions -  °F | °C
As of 12:35 PM on Friday 19 Dec 2014 (Local Time) from KRHP Reporting Station
Clear Clear  
Wind Chill: 41°   Ceiling: Unl
Heat Index: 45°   Visibility: 10mi
Dew Point: 35°   Wind: 7mph
Humidity: 69%   Direction: 270°W
Pressure: 30.13"   Gusts: NA
Location:  35.2235°N, 83.6438°W
Report Text: KRHP 191735Z AUTO 27006KT 10SM CLR 07/02 A3013 RMK AO2 T00700016
Loading
Personal Weather Stations






























Interactive Weather Map New forecast layout! Learn more

10-Day Weather Forecast

Advertisements
Track Severe Weather on mobile